createdAt,value
2018-07-03T00:00:15.970Z,0.80
2018-07-03T00:02:44.234Z,1.10
2018-07-03T00:05:12.328Z,0.80
2018-07-03T00:07:41.425Z,0.90
2018-07-03T00:10:10.172Z,0.90
2018-07-03T00:12:38.345Z,0.90
2018-07-03T00:15:07.542Z,0.90
2018-07-03T00:17:35.991Z,0.90
2018-07-03T00:20:04.940Z,0.90
2018-07-03T00:22:33.679Z,0.90
2018-07-03T00:25:01.949Z,0.70
2018-07-03T00:27:30.126Z,0.90
2018-07-03T00:29:58.264Z,0.90
2018-07-03T00:32:26.765Z,0.70
2018-07-03T00:34:54.999Z,0.90
2018-07-03T00:37:23.251Z,0.80
2018-07-03T00:39:51.714Z,0.70
2018-07-03T00:42:19.988Z,0.70
2018-07-03T00:44:48.048Z,0.80
2018-07-03T00:47:16.266Z,1.00
2018-07-03T00:49:44.434Z,0.80
2018-07-03T00:52:12.659Z,0.95
2018-07-03T00:54:40.969Z,0.80
2018-07-03T00:57:09.746Z,0.90
2018-07-03T00:59:43.700Z,1.10
2018-07-03T01:02:12.134Z,0.80
2018-07-03T01:04:41.039Z,1.10
2018-07-03T01:07:09.231Z,0.80
2018-07-03T01:09:37.892Z,1.00
2018-07-03T01:12:06.230Z,1.15
2018-07-03T01:14:34.609Z,1.20
2018-07-03T01:17:02.935Z,1.00
2018-07-03T01:19:31.031Z,0.90
2018-07-03T01:21:59.270Z,0.80
2018-07-03T01:24:27.677Z,0.80
2018-07-03T01:26:55.821Z,1.00
2018-07-03T01:29:24.350Z,1.10
2018-07-03T01:31:52.809Z,0.80
2018-07-03T01:34:21.121Z,0.90
2018-07-03T01:36:49.336Z,0.90
2018-07-03T01:39:17.860Z,1.00
2018-07-03T01:41:46.150Z,1.00
2018-07-03T01:44:14.277Z,0.80
2018-07-03T01:46:42.666Z,1.50
2018-07-03T01:49:10.950Z,0.80
2018-07-03T01:51:39.526Z,1.00
2018-07-03T01:54:07.731Z,0.80
2018-07-03T01:56:36.454Z,0.80
2018-07-03T01:59:04.990Z,0.87
2018-07-03T02:01:33.031Z,0.90
2018-07-03T02:04:01.135Z,0.80
2018-07-03T02:06:29.686Z,1.00
2018-07-03T02:08:57.801Z,0.80
2018-07-03T02:11:27.174Z,0.95
2018-07-03T02:13:55.526Z,0.90
2018-07-03T02:16:23.723Z,1.00
2018-07-03T02:18:52.075Z,0.90
2018-07-03T02:21:20.285Z,1.00
2018-07-03T02:23:48.516Z,0.90
2018-07-03T02:26:16.649Z,0.90
2018-07-03T02:28:45.423Z,0.90
2018-07-03T02:31:13.930Z,0.80
2018-07-03T02:33:42.278Z,0.98
2018-07-03T02:36:10.866Z,0.90
2018-07-03T02:38:39.054Z,1.00
2018-07-03T02:41:07.619Z,0.80
2018-07-03T02:43:36.411Z,0.85
2018-07-03T02:46:05.073Z,0.80
2018-07-03T02:48:33.301Z,1.00
2018-07-03T02:51:01.859Z,1.00
2018-07-03T02:53:29.899Z,1.10
2018-07-03T02:55:58.405Z,1.22
2018-07-03T02:58:26.443Z,0.98
2018-07-03T03:00:54.762Z,0.90
2018-07-03T03:03:23.552Z,0.70
2018-07-03T03:05:51.922Z,1.10
2018-07-03T03:08:20.177Z,1.00
2018-07-03T03:10:48.446Z,0.90
2018-07-03T03:13:16.957Z,1.00
2018-07-03T03:15:45.239Z,1.00
2018-07-03T03:18:13.471Z,0.90
2018-07-03T03:20:41.773Z,1.20
2018-07-03T03:23:10.378Z,1.00
2018-07-03T03:25:38.603Z,0.88
2018-07-03T03:28:07.546Z,1.00
2018-07-03T03:30:35.582Z,1.10
2018-07-03T03:33:03.838Z,1.00
2018-07-03T03:35:31.858Z,1.10
2018-07-03T03:38:00.754Z,0.93
2018-07-03T03:40:29.129Z,0.93
2018-07-03T03:42:57.293Z,1.00
2018-07-03T03:45:25.766Z,1.02
2018-07-03T03:47:54.269Z,1.10
2018-07-03T03:50:22.962Z,0.90
2018-07-03T03:52:51.417Z,0.90
2018-07-03T03:55:19.606Z,1.10
2018-07-03T03:57:47.994Z,1.00
2018-07-03T04:00:16.042Z,1.27
2018-07-03T04:02:44.256Z,1.02
2018-07-03T04:05:12.722Z,1.10
2018-07-03T04:07:40.758Z,1.30
2018-07-03T04:10:08.909Z,1.50
2018-07-03T04:12:37.139Z,1.12
2018-07-03T04:15:05.100Z,1.00
2018-07-03T04:17:33.576Z,1.02
2018-07-03T04:20:01.654Z,1.20
2018-07-03T04:22:29.929Z,2.00
2018-07-03T04:24:58.490Z,2.42
2018-07-03T04:27:26.610Z,1.80
2018-07-03T04:29:56.745Z,2.03
2018-07-03T04:32:24.889Z,1.60
2018-07-03T04:34:53.111Z,3.35
2018-07-03T04:37:21.438Z,3.98
2018-07-03T04:39:50.740Z,3.02
2018-07-03T04:44:50.781Z,3.87
2018-07-03T04:47:18.933Z,4.80
2018-07-03T04:49:46.928Z,1.80
2018-07-03T04:52:15.620Z,2.00
2018-07-03T04:54:43.785Z,1.65
2018-07-03T04:57:12.548Z,1.40
2018-07-03T04:59:40.854Z,1.20
2018-07-03T05:02:11.169Z,1.40
2018-07-03T05:04:40.465Z,1.10
2018-07-03T05:07:08.953Z,1.22
2018-07-03T05:09:38.809Z,1.20
2018-07-03T05:12:06.749Z,1.20
2018-07-03T05:14:34.877Z,2.75
2018-07-03T05:17:03.152Z,1.65
2018-07-03T05:19:31.759Z,2.20
2018-07-03T05:21:59.888Z,2.70
2018-07-03T05:24:28.212Z,1.92
2018-07-03T05:26:57.521Z,2.08
2018-07-03T05:29:26.213Z,1.50
2018-07-03T05:31:54.466Z,1.30
2018-07-03T05:34:23.079Z,1.10
2018-07-03T05:36:51.221Z,3.10
2018-07-03T05:39:19.633Z,1.92
2018-07-03T05:41:47.793Z,1.37
2018-07-03T05:44:16.587Z,1.10
2018-07-03T05:46:45.099Z,1.30
2018-07-03T05:49:13.342Z,1.30
2018-07-03T05:51:41.446Z,1.15
2018-07-03T05:54:09.566Z,1.15
2018-07-03T05:56:37.720Z,1.20
2018-07-03T05:59:05.837Z,1.17
2018-07-03T06:01:34.425Z,1.40
2018-07-03T06:04:02.574Z,1.10
2018-07-03T06:06:30.866Z,1.90
2018-07-03T06:08:59.362Z,1.40
2018-07-03T06:11:28.050Z,1.10
2018-07-03T06:13:56.623Z,1.20
2018-07-03T06:16:25.218Z,1.50
2018-07-03T06:18:53.577Z,1.40
2018-07-03T06:21:21.798Z,1.30
2018-07-03T06:23:49.997Z,1.80
2018-07-03T06:26:18.509Z,1.30
2018-07-03T06:28:46.672Z,1.40
2018-07-03T06:31:14.879Z,1.07
2018-07-03T06:33:43.215Z,1.00
2018-07-03T06:36:11.843Z,1.10
2018-07-03T06:38:41.239Z,1.00
2018-07-03T06:41:09.062Z,0.93
2018-07-03T06:43:37.674Z,1.40
2018-07-03T06:46:06.585Z,1.20
2018-07-03T06:48:34.493Z,1.00
2018-07-03T06:51:02.834Z,2.45
2018-07-03T06:53:31.209Z,1.30
2018-07-03T06:55:59.939Z,1.25
2018-07-03T06:58:28.219Z,1.15
2018-07-03T07:00:56.139Z,1.20
2018-07-03T07:03:24.231Z,0.90
2018-07-03T07:05:52.786Z,1.00
2018-07-03T07:08:21.263Z,1.10
2018-07-03T07:10:49.574Z,0.90
2018-07-03T07:13:17.909Z,1.00
2018-07-03T07:15:45.981Z,1.20
2018-07-03T07:18:14.081Z,0.80
2018-07-03T07:20:42.568Z,0.80
2018-07-03T07:23:10.975Z,1.17
2018-07-03T07:25:39.018Z,1.00
2018-07-03T07:28:07.073Z,1.50
2018-07-03T07:30:35.441Z,1.20
2018-07-03T07:33:03.899Z,1.90
2018-07-03T07:35:32.028Z,1.10
2018-07-03T07:38:00.397Z,0.97
2018-07-03T07:40:28.673Z,0.90
2018-07-03T07:42:57.144Z,1.10
2018-07-03T07:45:25.431Z,0.98
2018-07-03T07:47:55.515Z,1.10
2018-07-03T07:50:24.137Z,1.10
2018-07-03T07:52:52.223Z,1.10
2018-07-03T07:55:20.480Z,0.93
2018-07-03T07:57:48.853Z,0.90
2018-07-03T08:00:17.066Z,0.80
2018-07-03T08:02:45.085Z,1.10
2018-07-03T08:05:13.584Z,0.80
2018-07-03T08:07:42.373Z,1.10
2018-07-03T08:10:11.014Z,1.00
2018-07-03T08:12:39.454Z,1.30
2018-07-03T08:15:07.361Z,0.98
2018-07-03T08:17:35.497Z,1.00
2018-07-03T08:20:04.507Z,1.10
2018-07-03T08:22:32.724Z,1.17
2018-07-03T08:25:00.761Z,1.20
2018-07-03T08:27:29.085Z,0.80
2018-07-03T08:29:57.444Z,0.93
2018-07-03T08:32:25.960Z,1.10
2018-07-03T08:34:53.957Z,0.90
2018-07-03T08:37:22.537Z,0.80
2018-07-03T08:39:50.918Z,0.80
2018-07-03T08:42:18.955Z,1.50
2018-07-03T08:44:47.729Z,0.90
2018-07-03T08:47:16.738Z,1.00
2018-07-03T08:49:44.882Z,0.90
2018-07-03T08:52:14.810Z,0.90
2018-07-03T08:54:43.217Z,0.90
2018-07-03T08:57:11.350Z,1.00
2018-07-03T08:59:39.936Z,0.97
2018-07-03T09:02:08.690Z,0.90
2018-07-03T09:04:38.873Z,1.00
2018-07-03T09:07:07.056Z,1.07
2018-07-03T09:09:37.722Z,1.00
2018-07-03T09:12:08.345Z,0.90
2018-07-03T09:17:13.811Z,0.90
2018-07-03T09:19:42.004Z,0.90
2018-07-03T09:22:10.150Z,1.10
2018-07-03T09:24:38.146Z,1.50
2018-07-03T09:27:06.362Z,1.30
2018-07-03T09:29:35.453Z,1.00
2018-07-03T09:32:06.710Z,1.50
2018-07-03T09:34:36.136Z,1.10
2018-07-03T09:37:05.257Z,1.10
2018-07-03T09:39:33.701Z,1.00
2018-07-03T09:42:07.486Z,0.97
2018-07-03T09:44:36.537Z,0.70
2018-07-03T09:47:04.731Z,0.90
2018-07-03T09:49:32.747Z,0.80
2018-07-03T09:52:03.034Z,0.90
2018-07-03T09:54:32.007Z,1.30
2018-07-03T09:57:00.660Z,1.10
2018-07-03T09:59:30.479Z,0.70
2018-07-03T10:01:59.195Z,0.90
2018-07-03T10:04:28.443Z,0.80
2018-07-03T10:06:57.549Z,1.00
2018-07-03T10:09:28.349Z,1.00
2018-07-03T10:11:57.599Z,0.80
2018-07-03T10:14:26.823Z,0.90
2018-07-03T10:16:56.958Z,1.00
2018-07-03T10:19:30.623Z,1.10
2018-07-03T10:21:59.987Z,1.02
2018-07-03T10:24:31.036Z,0.90
2018-07-03T10:27:00.639Z,0.90
2018-07-03T10:29:29.202Z,0.90
2018-07-03T10:31:57.563Z,0.90
2018-07-03T10:34:26.273Z,0.80
2018-07-03T10:36:55.245Z,1.00
2018-07-03T10:39:24.144Z,0.80
2018-07-03T10:41:53.172Z,1.00
2018-07-03T10:44:22.054Z,0.80
2018-07-03T10:46:50.953Z,0.90
2018-07-03T10:49:21.658Z,0.80
2018-07-03T10:51:55.621Z,0.80
2018-07-03T10:54:27.120Z,0.70
2018-07-03T10:56:59.292Z,0.70
2018-07-03T10:59:33.220Z,0.90
2018-07-03T11:02:05.712Z,1.00
2018-07-03T11:04:34.377Z,0.80
2018-07-03T11:07:02.318Z,0.75
2018-07-03T11:09:30.958Z,0.90
2018-07-03T11:11:59.650Z,1.00
2018-07-03T11:14:27.784Z,0.90
2018-07-03T11:16:56.893Z,1.00
2018-07-03T11:19:24.900Z,0.90
2018-07-03T11:21:52.927Z,0.93
2018-07-03T11:24:21.005Z,0.90
2018-07-03T11:26:48.986Z,0.80
2018-07-03T11:29:16.970Z,0.80
2018-07-03T11:31:45.155Z,0.90
2018-07-03T11:34:13.145Z,0.70
2018-07-03T11:36:41.138Z,0.78
2018-07-03T11:39:09.416Z,0.80
2018-07-03T11:41:37.538Z,0.70
2018-07-03T11:44:05.734Z,0.80
2018-07-03T11:46:33.866Z,1.00
2018-07-03T11:49:01.821Z,1.20
2018-07-03T11:51:29.802Z,1.00
2018-07-03T11:53:57.850Z,0.90
2018-07-03T11:56:25.974Z,0.80
2018-07-03T11:58:54.254Z,0.88
2018-07-03T12:01:22.337Z,0.80
2018-07-03T12:03:50.250Z,0.80
2018-07-03T12:06:19.334Z,0.88
2018-07-03T12:08:47.865Z,0.90
2018-07-03T12:11:16.220Z,1.10
2018-07-03T12:13:46.189Z,1.10
2018-07-03T12:16:14.397Z,1.00
2018-07-03T12:18:48.392Z,1.00
2018-07-03T12:21:18.062Z,1.40
2018-07-03T12:23:46.377Z,0.90
2018-07-03T12:26:15.597Z,1.00
2018-07-03T12:28:43.981Z,1.10
2018-07-03T12:31:12.213Z,0.80
2018-07-03T12:33:41.515Z,0.70
2018-07-03T12:36:10.160Z,0.80
2018-07-03T12:38:38.270Z,0.90
2018-07-03T12:41:06.313Z,0.80
2018-07-03T12:43:34.410Z,0.80
2018-07-03T12:46:03.279Z,0.85
2018-07-03T12:48:32.106Z,0.90
2018-07-03T12:51:02.245Z,1.10
2018-07-03T12:53:30.368Z,0.80
2018-07-03T12:55:58.659Z,0.80
2018-07-03T12:58:26.653Z,0.90
2018-07-03T13:00:54.928Z,0.80
2018-07-03T13:03:22.911Z,0.80
2018-07-03T13:05:50.961Z,0.90
2018-07-03T13:08:19.021Z,0.80
2018-07-03T13:10:47.597Z,1.00
2018-07-03T13:13:15.841Z,0.80
2018-07-03T13:15:43.998Z,1.00
2018-07-03T13:18:17.649Z,1.00
2018-07-03T13:20:45.895Z,0.80
2018-07-03T13:23:13.936Z,0.80
2018-07-03T13:25:42.368Z,0.90
2018-07-03T13:28:10.541Z,1.30
2018-07-03T13:30:38.641Z,1.05
2018-07-03T13:33:06.923Z,1.20
2018-07-03T13:35:35.186Z,0.90
2018-07-03T13:38:03.140Z,1.17
2018-07-03T13:40:31.480Z,1.45
2018-07-03T13:42:59.701Z,1.30
2018-07-03T13:45:28.041Z,0.80
2018-07-03T13:47:55.976Z,1.00
2018-07-03T13:50:24.113Z,0.90
2018-07-03T13:52:52.391Z,1.00
2018-07-03T13:55:20.623Z,0.80
2018-07-03T13:57:49.253Z,0.80
2018-07-03T14:00:17.788Z,0.90
2018-07-03T14:02:46.013Z,0.80
2018-07-03T14:05:14.184Z,0.88
2018-07-03T14:07:43.717Z,0.82
2018-07-03T14:10:20.995Z,1.00
2018-07-03T14:12:55.406Z,1.02
2018-07-03T14:15:32.850Z,0.98
2018-07-03T14:18:10.380Z,1.10
2018-07-03T14:20:45.935Z,0.70
2018-07-03T14:23:17.865Z,1.20
2018-07-03T14:25:53.361Z,0.80
2018-07-03T14:28:23.464Z,1.00
2018-07-03T14:30:52.071Z,0.80
2018-07-03T14:33:20.689Z,0.82
2018-07-03T14:35:50.790Z,1.12
2018-07-03T14:38:19.443Z,1.10
2018-07-03T14:40:48.350Z,0.98
2018-07-03T14:43:17.427Z,0.90
2018-07-03T14:45:48.640Z,1.00
2018-07-03T14:48:23.589Z,1.00
2018-07-03T14:50:58.151Z,1.07
2018-07-03T14:53:30.898Z,1.02
2018-07-03T14:56:01.240Z,1.10
2018-07-03T14:58:37.849Z,1.00
2018-07-03T15:01:13.273Z,1.20
2018-07-03T15:03:49.820Z,1.10
2018-07-03T15:06:20.740Z,2.00
2018-07-03T15:08:56.338Z,1.67
2018-07-03T15:11:29.200Z,1.20
2018-07-03T15:14:01.415Z,1.70
2018-07-03T15:16:40.157Z,1.60
2018-07-03T15:19:18.726Z,1.50
2018-07-03T15:21:49.369Z,1.30
2018-07-03T15:24:18.707Z,1.10
2018-07-03T15:26:49.120Z,1.40
2018-07-03T15:29:23.981Z,1.20
2018-07-03T15:31:52.844Z,1.40
2018-07-03T15:34:21.310Z,1.40
2018-07-03T15:36:49.546Z,1.10
2018-07-03T15:39:17.891Z,1.30
2018-07-03T15:41:46.612Z,1.30
2018-07-03T15:44:20.188Z,1.57
2018-07-03T15:46:48.437Z,1.33
2018-07-03T15:49:16.687Z,1.70
2018-07-03T15:51:45.192Z,2.22
2018-07-03T15:54:13.112Z,1.60
2018-07-03T15:56:41.193Z,1.52
2018-07-03T15:59:09.261Z,1.40
2018-07-03T16:01:37.584Z,1.60
2018-07-03T16:04:11.358Z,1.70
2018-07-03T16:06:55.693Z,1.70
2018-07-03T16:09:23.716Z,1.60
2018-07-03T16:11:52.111Z,2.12
2018-07-03T16:14:20.056Z,1.60
2018-07-03T16:16:48.288Z,1.65
2018-07-03T16:19:21.662Z,1.60
2018-07-03T16:21:49.812Z,1.50
2018-07-03T16:24:17.818Z,1.20
2018-07-03T16:26:45.839Z,1.50
2018-07-03T16:29:13.828Z,1.50
2018-07-03T16:31:42.318Z,1.50
2018-07-03T16:34:11.161Z,1.70
2018-07-03T16:36:40.508Z,1.60
2018-07-03T16:39:10.017Z,1.60
2018-07-03T16:41:39.421Z,1.60
2018-07-03T16:44:08.452Z,1.70
2018-07-03T16:46:36.808Z,1.60
2018-07-03T16:49:04.878Z,1.30
2018-07-03T16:51:34.146Z,1.70
2018-07-03T16:54:02.354Z,1.40
2018-07-03T16:56:31.761Z,1.70
2018-07-03T16:59:00.799Z,1.75
2018-07-03T17:01:30.156Z,2.30
2018-07-03T17:03:58.071Z,2.00
2018-07-03T17:06:26.100Z,1.80
2018-07-03T17:08:54.267Z,2.40
2018-07-03T17:11:22.328Z,2.17
2018-07-03T17:13:50.629Z,2.00
2018-07-03T17:16:18.519Z,1.90
2018-07-03T17:18:51.860Z,2.22
2018-07-03T17:21:19.865Z,2.20
2018-07-03T17:23:47.860Z,1.90
2018-07-03T17:26:15.770Z,1.80
2018-07-03T17:28:43.804Z,1.87
2018-07-03T17:31:11.823Z,2.20
2018-07-03T17:33:39.923Z,2.40
2018-07-03T17:36:07.928Z,3.10
2018-07-03T17:38:35.940Z,3.65
2018-07-03T17:41:09.574Z,6.83
2018-07-03T17:44:10.577Z,6.12
2018-07-03T17:46:38.562Z,6.37
2018-07-03T17:49:06.881Z,4.83
2018-07-03T17:51:35.004Z,5.40
2018-07-03T17:54:03.206Z,5.37
2018-07-03T17:56:31.257Z,4.65
2018-07-03T17:58:59.416Z,2.80
2018-07-03T18:01:27.417Z,3.98
2018-07-03T18:03:55.458Z,3.85
2018-07-03T18:06:23.457Z,3.08
2018-07-03T18:08:52.008Z,2.35
2018-07-03T18:11:20.412Z,9.08
2018-07-03T18:13:48.448Z,5.28
2018-07-03T18:16:16.772Z,4.80
2018-07-03T18:18:44.755Z,5.17
2018-07-03T18:21:12.891Z,4.05
2018-07-03T18:23:41.229Z,3.27
2018-07-03T18:26:09.271Z,2.73
2018-07-03T18:28:40.830Z,2.90
2018-07-03T18:31:08.865Z,3.10
2018-07-03T18:33:36.885Z,2.52
2018-07-03T18:36:04.870Z,2.65
2018-07-03T18:38:33.092Z,2.60
2018-07-03T18:41:01.141Z,2.50
2018-07-03T18:43:29.153Z,2.58
2018-07-03T18:45:57.173Z,2.30
2018-07-03T18:48:25.189Z,2.50
2018-07-03T18:50:53.136Z,2.10
2018-07-03T18:53:21.053Z,2.40
2018-07-03T18:55:48.986Z,2.62
2018-07-03T18:58:16.989Z,2.80
2018-07-03T19:00:44.938Z,3.30
2018-07-03T19:03:12.960Z,2.60
2018-07-03T19:05:40.942Z,4.10
2018-07-03T19:08:08.944Z,3.80
2018-07-03T19:10:36.896Z,3.87
2018-07-03T19:13:05.041Z,3.35
2018-07-03T19:15:32.953Z,3.25
2018-07-03T19:18:00.953Z,3.80
2018-07-03T19:20:28.857Z,3.90
2018-07-03T19:22:56.894Z,3.10
2018-07-03T19:25:24.815Z,3.37
2018-07-03T19:27:52.775Z,3.90
2018-07-03T19:30:20.789Z,3.10
2018-07-03T19:32:49.408Z,3.25
2018-07-03T19:35:17.496Z,3.00
2018-07-03T19:37:45.519Z,2.92
2018-07-03T19:40:13.493Z,2.50
2018-07-03T19:42:47.166Z,2.67
2018-07-03T19:45:15.131Z,2.50
2018-07-03T19:47:43.125Z,2.40
2018-07-03T19:50:11.349Z,2.00
2018-07-03T19:52:39.397Z,2.55
2018-07-03T19:55:07.416Z,2.42
2018-07-03T19:57:35.385Z,2.30
2018-07-03T20:00:03.385Z,2.40
2018-07-03T20:02:31.379Z,2.33
2018-07-03T20:04:59.454Z,2.35
2018-07-03T20:07:27.490Z,2.40
2018-07-03T20:09:55.413Z,2.40
2018-07-03T20:12:23.374Z,2.27
2018-07-03T20:14:51.970Z,2.50
2018-07-03T20:17:20.087Z,2.20
2018-07-03T20:19:48.017Z,2.40
2018-07-03T20:22:15.947Z,2.67
2018-07-03T20:24:44.006Z,2.33
2018-07-03T20:27:12.058Z,2.60
2018-07-03T20:29:40.664Z,2.40
2018-07-03T20:32:08.831Z,2.40
2018-07-03T20:34:37.128Z,2.00
2018-07-03T20:37:05.692Z,2.25
2018-07-03T20:39:33.654Z,2.20
2018-07-03T20:42:01.569Z,2.15
2018-07-03T20:44:29.756Z,2.30
2018-07-03T20:46:57.785Z,2.05
2018-07-03T20:49:25.829Z,2.40
2018-07-03T20:51:53.724Z,2.10
2018-07-03T20:54:21.874Z,2.50
2018-07-03T20:56:50.729Z,2.27
2018-07-03T20:59:19.269Z,2.22
2018-07-03T21:01:47.851Z,2.10
2018-07-03T21:04:15.936Z,2.30
2018-07-03T21:06:43.957Z,2.60
2018-07-03T21:09:12.127Z,2.40
2018-07-03T21:11:40.964Z,2.20
2018-07-03T21:14:09.246Z,2.33
2018-07-03T21:16:37.720Z,2.40
2018-07-03T21:19:05.688Z,2.20
2018-07-03T21:21:33.961Z,2.37
2018-07-03T21:24:01.899Z,2.20
2018-07-03T21:26:29.821Z,2.50
2018-07-03T21:28:57.982Z,2.50
2018-07-03T21:31:25.956Z,2.25
2018-07-03T21:33:53.906Z,2.03
2018-07-03T21:36:22.033Z,2.35
2018-07-03T21:38:50.112Z,2.40
2018-07-03T21:41:18.237Z,2.60
2018-07-03T21:43:46.206Z,2.40
2018-07-03T21:46:14.202Z,2.80
2018-07-03T21:48:42.162Z,2.58
2018-07-03T21:51:10.116Z,2.40
2018-07-03T21:53:38.247Z,2.60
2018-07-03T21:56:06.333Z,2.70
2018-07-03T21:58:34.277Z,2.40
2018-07-03T22:01:02.385Z,2.72
2018-07-03T22:03:30.752Z,2.52
2018-07-03T22:05:59.810Z,2.70
2018-07-03T22:08:28.292Z,2.72
2018-07-03T22:10:56.737Z,3.30
2018-07-03T22:13:24.703Z,3.10
2018-07-03T22:15:52.761Z,2.58
2018-07-03T22:18:20.882Z,3.27
2018-07-03T22:20:48.920Z,2.58
2018-07-03T22:23:16.920Z,2.70
2018-07-03T22:25:45.472Z,2.80
2018-07-03T22:28:13.748Z,2.80
2018-07-03T22:30:42.147Z,3.00
2018-07-03T22:33:10.856Z,3.00
2018-07-03T22:35:38.781Z,2.85
2018-07-03T22:38:06.946Z,3.40
2018-07-03T22:40:35.132Z,3.00
2018-07-03T22:43:03.583Z,2.72
2018-07-03T22:45:31.893Z,2.75
2018-07-03T22:48:00.721Z,2.83
2018-07-03T22:50:29.051Z,3.00
2018-07-03T22:52:57.355Z,2.80
2018-07-03T22:55:25.273Z,3.00
2018-07-03T22:57:53.400Z,2.90
2018-07-03T23:00:21.436Z,2.70
2018-07-03T23:02:49.515Z,2.70
2018-07-03T23:05:17.737Z,2.55
2018-07-03T23:07:45.795Z,2.90
2018-07-03T23:10:14.067Z,2.80
2018-07-03T23:12:42.428Z,3.05
2018-07-03T23:15:10.626Z,3.20
2018-07-03T23:17:38.683Z,2.80
2018-07-03T23:20:06.567Z,2.85
2018-07-03T23:22:34.569Z,2.95
2018-07-03T23:25:02.663Z,2.90
2018-07-03T23:27:31.037Z,2.90
2018-07-03T23:29:59.055Z,2.80
2018-07-03T23:32:27.317Z,3.00
2018-07-03T23:34:55.278Z,2.72
2018-07-03T23:37:23.185Z,3.02
2018-07-03T23:39:51.300Z,2.75
2018-07-03T23:42:19.281Z,2.60
2018-07-03T23:44:47.269Z,2.77
2018-07-03T23:47:21.102Z,3.10
2018-07-03T23:50:01.104Z,3.00
2018-07-03T23:52:41.073Z,3.30
2018-07-03T23:55:20.922Z,3.00
2018-07-03T23:58:01.080Z,2.80
